1878 Hurricane NOT_NAMED (1878246N20312)


IBTrACS version v04r00. Visit IBTrACS website for data access.
Please direct all questions to the IBTrACS Q and A forum

Storm track - Intensity - Wind Radii - Intensity Data - Source Data - All data

Summary Information

Storm ID 1878246N20312
Start Sep 2 12Z
Max Intensity 75 kt (Sep 5 06Z)
End Sep 13 12Z
ATCF IDs
Track status Best track data.

Storm track plot

Map of storm track

Intensity plots

Map of storm track

Radial wind information

No radial wind information for this storm


Position and Intensity Table

BASIN ISO_TIME_________ NATURE LAT LON MLC WIND
degrees north degrees east kts
NA 1878-09-02 12:00:00 TS 20.50 -48.00 45
NA 15:00:00 TS 20.75 -48.20 45
NA 18:00:00 TS 21.00 -48.40 45
NA 21:00:00 TS 21.25 -48.60 45
NA 1878-09-03 00:00:00 TS 21.50 -48.80 45
NA 03:00:00 TS 21.75 -49.01 45
NA 06:00:00 TS 22.00 -49.20 45
NA 09:00:00 TS 22.25 -49.35 45
NA 12:00:00 TS 22.50 -49.50 45
NA 15:00:00 TS 22.75 -49.69 47
NA 18:00:00 TS 23.00 -49.90 50
NA 21:00:00 TS 23.25 -50.10 50
NA 1878-09-04 00:00:00 TS 23.50 -50.30 50
NA 03:00:00 TS 23.75 -50.51 52
NA 06:00:00 TS 24.00 -50.70 55
NA 09:00:00 TS 24.23 -50.85 57
NA 12:00:00 TS 24.50 -51.00 60
NA 15:00:00 TS 24.89 -51.20 60
NA 18:00:00 TS 25.30 -51.40 60
NA 21:00:00 TS 25.65 -51.56 65
NA 1878-09-05 00:00:00 TS 26.00 -51.70 70
NA 03:00:00 TS 26.40 -51.85 72
NA 06:00:00 TS 26.80 -52.00 75
NA 09:00:00 TS 27.14 -52.17 75
NA 12:00:00 TS 27.50 -52.30 75
NA 15:00:00 TS 27.98 -52.37 75
NA 18:00:00 TS 28.50 -52.40 75
NA 21:00:00 TS 29.00 -52.40 75
NA 1878-09-06 00:00:00 TS 29.50 -52.40 75
NA 03:00:00 TS 30.00 -52.45 75
NA 06:00:00 TS 30.50 -52.50 75
NA 09:00:00 TS 30.96 -52.51 75
NA 12:00:00 TS 31.50 -52.50 75
NA 15:00:00 TS 32.21 -52.48 75
NA 18:00:00 TS 33.00 -52.40 75
NA 21:00:00 TS 33.75 -52.25 75
NA 1878-09-07 00:00:00 TS 34.50 -52.00 75
NA 03:00:00 TS 35.25 -51.62 75
NA 06:00:00 TS 36.00 -51.20 75
NA 09:00:00 TS 36.73 -50.90 75
NA 12:00:00 TS 37.50 -50.50 75
NA 15:00:00 TS 38.39 -49.81 72
NA 18:00:00 TS 39.30 -49.00 70
NA 21:00:00 TS 40.19 -48.29 70
NA 1878-09-08 00:00:00 TS 41.00 -47.50 70
NA 03:00:00 TS 41.71 -46.50 70
NA 06:00:00 TS 42.20 -45.50 70
NA 09:00:00 TS 42.48 -44.65 70
NA 12:00:00 TS 42.50 -44.00 70
NA 15:00:00 TS 42.31 -43.58 70
NA 18:00:00 TS 42.00 -43.30 70
NA 21:00:00 TS 41.75 -42.99 70
NA 1878-09-09 00:00:00 TS 41.50 -42.70 70
NA 03:00:00 TS 41.25 -42.40 67
NA 06:00:00 TS 41.00 -42.10 65
NA 09:00:00 TS 40.74 -41.81 65
NA 12:00:00 TS 40.50 -41.50 65
NA 15:00:00 TS 40.29 -41.15 62
NA 18:00:00 TS 40.10 -40.80 60
NA 21:00:00 TS 39.90 -40.49 60
NA 1878-09-10 00:00:00 TS 39.70 -40.20 60
NA 03:00:00 TS 39.49 -39.90 57
NA 06:00:00 TS 39.30 -39.60 55
NA 09:00:00 TS 39.16 -39.32 55
NA 12:00:00 TS 39.00 -39.00 55
NA 15:00:00 TS 38.77 -38.57 52
NA 18:00:00 TS 38.50 -38.10 50
NA 21:00:00 TS 38.25 -37.64 50
NA 1878-09-11 00:00:00 TS 38.00 -37.20 50
NA 03:00:00 TS 37.75 -36.80 47
NA 06:00:00 TS 37.50 -36.40 45
NA 09:00:00 TS 37.16 -35.98 45
NA 12:00:00 TS 37.00 -35.50 45
NA 15:00:00 TS 37.27 -34.92 45
NA 18:00:00 TS 37.70 -34.30 45
NA 21:00:00 TS 38.01 -33.74 45
NA 1878-09-12 00:00:00 TS 38.30 -33.20 45
NA 03:00:00 TS 38.60 -32.65 45
NA 06:00:00 TS 38.90 -32.10 45
NA 09:00:00 TS 39.19 -31.53 42
NA 12:00:00 TS 39.50 -31.00 40
NA 15:00:00 TS 39.89 -30.57 37
NA 18:00:00 TS 40.30 -30.20 35
NA 21:00:00 TS 40.65 -29.85 35
NA 1878-09-13 00:00:00 ET 41.00 -29.50 35
NA 03:00:00 ET 41.40 -29.10 35
NA 06:00:00 ET 41.80 -28.70 35
NA 09:00:00 ET 42.16 -28.34 35
NA 12:00:00 ET 42.50 -28.00 35

Source Information

Agency Information
USA
TOKYO
CMA
HKO
NEWDELHI
REUNION
BOM
NADI
WELLINGTON
DS824
TD9636
TD9635
NEUMANN
MLC

All available IBTrACS Data

SEASON BASIN SUBBASIN ISO_TIME_________ NATURE LAT LON DIST2LAND LANDFALL IFLAG USA SSHS MLC LAT MLC LON MLC CLASS MLC WIND STORM SPEED STORM DIR
Year degrees north degrees east km km 1 degrees north degrees east kts kts degrees
1878 NA NA 1878-09-02 12:00:00 TS 20.50 -48.00 1766 1766 _____________O -1 20.50 -48.00 TS 45 6 323
1878 NA NA 15:00:00 TS 20.75 -48.20 1774 1765 _____________P -1 20.75 -48.20 TS 45 6 323
1878 NA NA 18:00:00 TS 21.00 -48.40 1772 1770 _____________O -1 21.00 -48.40 TS 45 6 323
1878 NA NA 21:00:00 TS 21.25 -48.60 1770 1768 _____________P -1 21.25 -48.60 TS 45 6 323
1878 NA NA 1878-09-03 00:00:00 TS 21.50 -48.80 1775 1771 _____________O -1 21.50 -48.80 TS 45 6 323
1878 NA NA 03:00:00 TS 21.75 -49.01 1773 1754 _____________P -1 21.75 -49.01 TS 45 6 323
1878 NA NA 06:00:00 TS 22.00 -49.20 1756 1748 _____________O -1 22.00 -49.20 TS 45 6 328
1878 NA NA 09:00:00 TS 22.25 -49.35 1740 1735 _____________P -1 22.25 -49.35 TS 45 6 331
1878 NA NA 12:00:00 TS 22.50 -49.50 1737 1722 _____________O -1 22.50 -49.50 TS 45 6 328
1878 NA NA 15:00:00 TS 22.75 -49.69 1725 1707 _____________P -1 22.75 -49.69 TS 47 6 324
1878 NA NA 18:00:00 TS 23.00 -49.90 1710 1696 _____________O -1 23.00 -49.90 TS 50 6 323
1878 NA NA 21:00:00 TS 23.25 -50.10 1696 1683 _____________P -1 23.25 -50.10 TS 50 6 324
1878 NA NA 1878-09-04 00:00:00 TS 23.50 -50.30 1686 1673 _____________O -1 23.50 -50.30 TS 50 6 323
1878 NA NA 03:00:00 TS 23.75 -50.51 1677 1661 _____________P -1 23.75 -50.51 TS 52 6 324
1878 NA NA 06:00:00 TS 24.00 -50.70 1665 1659 _____________O -1 24.00 -50.70 TS 55 6 327
1878 NA NA 09:00:00 TS 24.23 -50.85 1653 1651 _____________P -1 24.23 -50.85 TS 57 6 331
1878 NA NA 12:00:00 TS 24.50 -51.00 1656 1649 _____________O -1 24.50 -51.00 TS 60 7 334
1878 NA NA 15:00:00 TS 24.89 -51.20 1654 1649 _____________P -1 24.89 -51.20 TS 60 9 336
1878 NA NA 18:00:00 TS 25.30 -51.40 1654 1649 _____________O -1 25.30 -51.40 TS 60 8 337
1878 NA NA 21:00:00 TS 25.65 -51.56 1650 1650 _____________P -1 25.65 -51.56 TS 65 8 339
1878 NA NA 1878-09-05 00:00:00 TS 26.00 -51.70 1662 1662 _____________O -1 26.00 -51.70 HU 70 8 341
1878 NA NA 03:00:00 TS 26.40 -51.85 1666 1666 _____________P -1 26.40 -51.85 HU 72 8 341
1878 NA NA 06:00:00 TS 26.80 -52.00 1680 1677 _____________O -1 26.80 -52.00 HU 75 8 339
1878 NA NA 09:00:00 TS 27.14 -52.17 1680 1680 _____________P -1 27.14 -52.17 HU 75 8 339
1878 NA NA 12:00:00 TS 27.50 -52.30 1697 1697 _____________O -1 27.50 -52.30 HU 75 9 348
1878 NA NA 15:00:00 TS 27.98 -52.37 1720 1720 _____________P -1 27.98 -52.37 HU 75 10 355
1878 NA NA 18:00:00 TS 28.50 -52.40 1754 1754 _____________O -1 28.50 -52.40 HU 75 10 359
1878 NA NA 21:00:00 TS 29.00 -52.40 1788 1788 _____________P -1 29.00 -52.40 HU 75 10 1
1878 NA NA 1878-09-06 00:00:00 TS 29.50 -52.40 1823 1823 _____________O -1 29.50 -52.40 HU 75 10 358
1878 NA NA 03:00:00 TS 30.00 -52.45 1849 1793 _____________P -1 30.00 -52.45 HU 75 10 355
1878 NA NA 06:00:00 TS 30.50 -52.50 1793 1748 _____________O -1 30.50 -52.50 HU 75 10 357
1878 NA NA 09:00:00 TS 30.96 -52.51 1737 1681 _____________P -1 30.96 -52.51 HU 75 10 1
1878 NA NA 12:00:00 TS 31.50 -52.50 1681 1603 _____________O -1 31.50 -52.50 HU 75 13 2
1878 NA NA 15:00:00 TS 32.21 -52.48 1603 1515 _____________P -1 32.21 -52.48 HU 75 15 3
1878 NA NA 18:00:00 TS 33.00 -52.40 1515 1437 _____________O -1 33.00 -52.40 HU 75 16 7
1878 NA NA 21:00:00 TS 33.75 -52.25 1437 1350 _____________P -1 33.75 -52.25 HU 75 15 13
1878 NA NA 1878-09-07 00:00:00 TS 34.50 -52.00 1350 1274 _____________O -1 34.50 -52.00 HU 75 16 19
1878 NA NA 03:00:00 TS 35.25 -51.62 1264 1190 _____________P -1 35.25 -51.62 HU 75 16 24
1878 NA NA 06:00:00 TS 36.00 -51.20 1190 1117 _____________O -1 36.00 -51.20 HU 75 16 22
1878 NA NA 09:00:00 TS 36.73 -50.90 1117 1036 _____________P -1 36.73 -50.90 HU 75 16 20
1878 NA NA 12:00:00 TS 37.50 -50.50 1036 961 _____________O -1 37.50 -50.50 HU 75 19 27
1878 NA NA 15:00:00 TS 38.39 -49.81 953 887 _____________P -1 38.39 -49.81 HU 72 22 33
1878 NA NA 18:00:00 TS 39.30 -49.00 879 819 _____________O -1 39.30 -49.00 HU 70 22 33
1878 NA NA 21:00:00 TS 40.19 -48.29 813 771 _____________P -1 40.19 -48.29 HU 70 21 34
1878 NA NA 1878-09-08 00:00:00 TS 41.00 -47.50 771 755 _____________O -1 41.00 -47.50 HU 70 20 42
1878 NA NA 03:00:00 TS 41.71 -46.50 761 758 _____________P -1 41.71 -46.50 HU 70 19 51
1878 NA NA 06:00:00 TS 42.20 -45.50 780 780 _____________O -1 42.20 -45.50 HU 70 16 61
1878 NA NA 09:00:00 TS 42.48 -44.65 809 809 _____________P -1 42.48 -44.65 HU 70 11 75
1878 NA NA 12:00:00 TS 42.50 -44.00 854 854 _____________O -1 42.50 -44.00 HU 70 8 102
1878 NA NA 15:00:00 TS 42.31 -43.58 893 893 _____________P -1 42.31 -43.58 HU 70 7 134
1878 NA NA 18:00:00 TS 42.00 -43.30 933 933 _____________O -1 42.00 -43.30 HU 70 7 142
1878 NA NA 21:00:00 TS 41.75 -42.99 973 973 _____________P -1 41.75 -42.99 HU 70 7 138
1878 NA NA 1878-09-09 00:00:00 TS 41.50 -42.70 1007 1007 _____________O -1 41.50 -42.70 HU 70 7 138
1878 NA NA 03:00:00 TS 41.25 -42.40 1047 1047 _____________P -1 41.25 -42.40 HU 67 7 138
1878 NA NA 06:00:00 TS 41.00 -42.10 1081 1081 _____________O -1 41.00 -42.10 HU 65 7 139
1878 NA NA 09:00:00 TS 40.74 -41.81 1122 1122 _____________P -1 40.74 -41.81 HU 65 7 138
1878 NA NA 12:00:00 TS 40.50 -41.50 1155 1155 _____________O -1 40.50 -41.50 HU 65 7 132
1878 NA NA 15:00:00 TS 40.29 -41.15 1189 1189 _____________P -1 40.29 -41.15 HU 62 7 127
1878 NA NA 18:00:00 TS 40.10 -40.80 1229 1229 _____________O -1 40.10 -40.80 TS 60 6 128
1878 NA NA 21:00:00 TS 39.90 -40.49 1263 1263 _____________P -1 39.90 -40.49 TS 60 6 131
1878 NA NA 1878-09-10 00:00:00 TS 39.70 -40.20 1297 1297 _____________O -1 39.70 -40.20 TS 60 6 132
1878 NA NA 03:00:00 TS 39.49 -39.90 1331 1331 _____________P -1 39.49 -39.90 TS 57 6 131
1878 NA NA 06:00:00 TS 39.30 -39.60 1365 1365 _____________O -1 39.30 -39.60 TS 55 6 127
1878 NA NA 09:00:00 TS 39.16 -39.32 1391 1391 _____________P -1 39.16 -39.32 TS 55 6 123
1878 NA NA 12:00:00 TS 39.00 -39.00 1425 1425 _____________O -1 39.00 -39.00 TS 55 7 124
1878 NA NA 15:00:00 TS 38.77 -38.57 1466 1466 _____________P -1 38.77 -38.57 TS 52 9 125
1878 NA NA 18:00:00 TS 38.50 -38.10 1521 1521 _____________O -1 38.50 -38.10 TS 50 9 125
1878 NA NA 21:00:00 TS 38.25 -37.64 1575 1575 _____________P -1 38.25 -37.64 TS 50 9 125
1878 NA NA 1878-09-11 00:00:00 TS 38.00 -37.20 1616 1616 _____________O -1 38.00 -37.20 TS 50 8 127
1878 NA NA 03:00:00 TS 37.75 -36.80 1664 1664 _____________P -1 37.75 -36.80 TS 47 8 128
1878 NA NA 06:00:00 TS 37.50 -36.40 1705 1705 _____________O -1 37.50 -36.40 TS 45 9 132
1878 NA NA 09:00:00 TS 37.16 -35.98 1754 1754 _____________P -1 37.16 -35.98 TS 45 9 125
1878 NA NA 12:00:00 TS 37.00 -35.50 1801 1801 _____________O -1 37.00 -35.50 TS 45 9 83
1878 NA NA 15:00:00 TS 37.27 -34.92 1819 1818 _____________P -1 37.27 -34.92 TS 45 12 54
1878 NA NA 18:00:00 TS 37.70 -34.30 1830 1830 _____________O -1 37.70 -34.30 TS 45 12 51
1878 NA NA 21:00:00 TS 38.01 -33.74 1850 1843 _____________P -1 38.01 -33.74 TS 45 11 55
1878 NA NA 1878-09-12 00:00:00 TS 38.30 -33.20 1864 1856 _____________O -1 38.30 -33.20 TS 45 10 55
1878 NA NA 03:00:00 TS 38.60 -32.65 1855 1838 _____________P -1 38.60 -32.65 TS 45 10 55
1878 NA NA 06:00:00 TS 38.90 -32.10 1838 1816 _____________O -1 38.90 -32.10 TS 45 11 56
1878 NA NA 09:00:00 TS 39.19 -31.53 1816 1803 _____________P -1 39.19 -31.53 TS 42 10 55
1878 NA NA 12:00:00 TS 39.50 -31.00 1803 1796 _____________O -1 39.50 -31.00 TS 40 10 46
1878 NA NA 15:00:00 TS 39.89 -30.57 1796 1751 _____________P -1 39.89 -30.57 TS 37 10 38
1878 NA NA 18:00:00 TS 40.30 -30.20 1751 1717 _____________O -1 40.30 -30.20 TS 35 9 36
1878 NA NA 21:00:00 TS 40.65 -29.85 1709 1674 _____________P -1 40.65 -29.85 TS 35 9 37
1878 NA NA 1878-09-13 00:00:00 ET 41.00 -29.50 1674 1631 _____________O -1 41.00 -29.50 EX 35 9 37
1878 NA NA 03:00:00 ET 41.40 -29.10 1631 1589 _____________P -1 41.40 -29.10 EX 35 10 37
1878 NA NA 06:00:00 ET 41.80 -28.70 1589 1558 _____________O -1 41.80 -28.70 EX 35 10 37
1878 NA NA 09:00:00 ET 42.16 -28.34 1548 1519 _____________P -1 42.16 -28.34 EX 35 9 37
1878 NA NA 12:00:00 ET 42.50 -28.00 1519 _____________O -1 42.50 -28.00 EX 35 8 37